createdAt,value
2023-05-12T00:02:03.289Z,20.00
2023-05-12T00:04:30.392Z,17.95
2023-05-12T00:06:57.512Z,21.60
2023-05-12T00:09:24.806Z,16.98
2023-05-12T00:11:51.954Z,20.73
2023-05-12T00:14:20.314Z,17.33
2023-05-12T00:16:51.871Z,23.65
2023-05-12T00:19:20.411Z,18.92
2023-05-12T00:21:48.046Z,18.98
2023-05-12T00:24:15.213Z,13.60
2023-05-12T00:26:42.182Z,18.33
2023-05-12T00:29:09.738Z,17.52
2023-05-12T00:31:36.848Z,16.95
2023-05-12T00:34:03.962Z,19.40
2023-05-12T00:36:31.094Z,21.60
2023-05-12T00:38:58.694Z,17.83
2023-05-12T00:41:25.985Z,23.27
2023-05-12T00:43:53.167Z,23.77
2023-05-12T00:46:21.078Z,18.45
2023-05-12T00:48:48.843Z,21.77
2023-05-12T00:51:17.149Z,19.30
2023-05-12T00:53:49.970Z,23.05
2023-05-12T00:56:20.030Z,21.17
2023-05-12T00:58:47.394Z,18.58
2023-05-12T01:01:16.123Z,20.27
2023-05-12T01:03:45.613Z,30.35
2023-05-12T01:06:18.413Z,18.17
2023-05-12T01:08:46.193Z,18.17
2023-05-12T01:11:13.420Z,19.77
2023-05-12T01:13:41.424Z,18.63
2023-05-12T01:16:13.355Z,18.45
2023-05-12T01:18:49.460Z,17.20
2023-05-12T01:21:18.209Z,25.88
2023-05-12T01:23:51.935Z,18.52
2023-05-12T01:26:19.189Z,15.38
2023-05-12T01:28:48.016Z,14.60
2023-05-12T01:31:15.901Z,13.63
2023-05-12T01:33:43.275Z,19.45
2023-05-12T01:36:10.671Z,14.95
2023-05-12T01:38:37.987Z,16.17
2023-05-12T01:41:05.194Z,24.33
2023-05-12T01:43:35.474Z,15.27
2023-05-12T01:46:02.780Z,26.38
2023-05-12T01:48:30.407Z,16.10
2023-05-12T01:51:02.320Z,24.17
2023-05-12T01:53:29.472Z,19.50
2023-05-12T01:55:56.455Z,16.23
2023-05-12T01:58:25.483Z,18.70
2023-05-12T02:00:52.876Z,12.93
2023-05-12T02:03:20.373Z,14.73
2023-05-12T02:05:47.484Z,17.65
2023-05-12T02:08:14.471Z,19.67
2023-05-12T02:10:41.936Z,15.93
2023-05-12T02:13:08.966Z,20.63
2023-05-12T02:15:36.062Z,16.05
2023-05-12T02:18:04.671Z,16.77
2023-05-12T02:20:32.440Z,15.82
2023-05-12T02:22:59.489Z,18.08
2023-05-12T02:25:29.958Z,19.50
2023-05-12T02:27:57.080Z,17.40
2023-05-12T02:30:24.269Z,15.02
2023-05-12T02:32:51.582Z,13.13
2023-05-12T02:35:18.970Z,15.52
2023-05-12T02:37:45.992Z,13.82
2023-05-12T02:40:13.984Z,16.60
2023-05-12T02:42:41.537Z,14.75
2023-05-12T02:45:09.087Z,13.80
2023-05-12T02:47:36.635Z,16.58
2023-05-12T02:50:04.109Z,13.48
2023-05-12T02:52:32.009Z,20.55
2023-05-12T02:54:59.062Z,16.42
2023-05-12T02:57:32.215Z,14.85
2023-05-12T02:59:59.705Z,13.20
2023-05-12T03:02:27.013Z,20.55
2023-05-12T03:04:54.070Z,14.27
2023-05-12T03:07:21.780Z,15.68
2023-05-12T03:09:50.416Z,19.85
2023-05-12T03:12:17.806Z,15.48
2023-05-12T03:14:44.896Z,13.70
2023-05-12T03:17:12.513Z,15.73
2023-05-12T03:19:40.211Z,17.05
2023-05-12T03:22:07.661Z,19.30
2023-05-12T03:24:35.637Z,17.58
2023-05-12T03:27:02.849Z,16.48
2023-05-12T03:29:29.892Z,16.63
2023-05-12T03:31:56.967Z,14.48
2023-05-12T03:34:24.472Z,18.60
2023-05-12T03:36:51.710Z,14.73
2023-05-12T03:39:18.945Z,17.70
2023-05-12T03:41:45.957Z,14.85
2023-05-12T03:44:13.244Z,13.38
2023-05-12T03:46:40.385Z,17.42
2023-05-12T03:49:07.458Z,17.75
2023-05-12T03:51:34.473Z,20.45
2023-05-12T03:54:01.576Z,16.35
2023-05-12T03:56:29.611Z,19.92
2023-05-12T03:58:57.520Z,19.10
2023-05-12T04:01:24.630Z,20.10
2023-05-12T04:03:51.647Z,16.50
2023-05-12T04:06:18.954Z,12.02
2023-05-12T04:08:45.985Z,15.32
2023-05-12T04:11:13.011Z,17.35
2023-05-12T04:13:42.031Z,14.68
2023-05-12T04:16:09.975Z,15.07
2023-05-12T04:18:37.225Z,14.07
2023-05-12T04:21:05.606Z,22.98
2023-05-12T04:23:32.900Z,15.82
2023-05-12T04:26:03.130Z,20.48
2023-05-12T04:28:30.150Z,15.50
2023-05-12T04:30:57.228Z,16.75
2023-05-12T04:33:25.003Z,12.48
2023-05-12T04:35:57.004Z,15.73
2023-05-12T04:38:24.460Z,18.70
2023-05-12T04:40:51.707Z,17.48
2023-05-12T04:45:51.150Z,18.73
2023-05-12T04:48:18.256Z,16.38
2023-05-12T04:50:45.358Z,18.40
2023-05-12T04:53:13.245Z,17.35
2023-05-12T04:55:40.993Z,18.92
2023-05-12T04:58:07.993Z,15.45
2023-05-12T05:00:35.623Z,13.75
2023-05-12T05:03:02.682Z,18.65
2023-05-12T05:05:29.903Z,17.38
2023-05-12T05:07:57.037Z,16.52
2023-05-12T05:10:24.583Z,21.05
2023-05-12T05:12:52.685Z,15.82
2023-05-12T05:15:20.114Z,14.98
2023-05-12T05:17:49.663Z,17.77
2023-05-12T05:20:17.840Z,16.75
2023-05-12T05:22:45.108Z,14.52
2023-05-12T05:25:13.720Z,18.90
2023-05-12T05:27:40.822Z,21.20
2023-05-12T05:30:12.108Z,16.83
2023-05-12T05:32:40.806Z,18.58
2023-05-12T05:35:08.514Z,14.32
2023-05-12T05:37:39.250Z,14.88
2023-05-12T05:40:07.883Z,18.50
2023-05-12T05:42:34.912Z,18.23
2023-05-12T05:45:02.478Z,20.20
2023-05-12T05:47:31.562Z,13.25
2023-05-12T05:49:58.831Z,22.52
2023-05-12T05:52:26.284Z,14.93
2023-05-12T05:54:53.468Z,14.18
2023-05-12T05:57:22.702Z,23.25
2023-05-12T05:59:50.266Z,19.67
2023-05-12T06:02:17.471Z,14.52
2023-05-12T06:04:44.605Z,17.92
2023-05-12T06:07:11.783Z,12.57
2023-05-12T06:09:38.749Z,15.07
2023-05-12T06:12:06.770Z,13.02
2023-05-12T06:14:33.801Z,18.48
2023-05-12T06:17:00.958Z,16.67
2023-05-12T06:19:28.223Z,23.90
2023-05-12T06:21:55.308Z,17.38
2023-05-12T06:24:22.510Z,24.20
2023-05-12T06:26:49.542Z,14.70
2023-05-12T06:29:16.791Z,20.00
2023-05-12T06:31:43.879Z,14.23
2023-05-12T06:34:11.183Z,22.08
2023-05-12T06:36:38.887Z,13.52
2023-05-12T06:39:06.131Z,17.83
2023-05-12T06:41:33.789Z,25.98
2023-05-12T06:44:02.436Z,22.73
2023-05-12T06:46:29.577Z,14.80
2023-05-12T06:48:56.585Z,16.75
2023-05-12T06:51:23.859Z,13.00
2023-05-12T06:53:50.856Z,14.27
2023-05-12T06:56:18.078Z,15.32
2023-05-12T06:58:45.675Z,24.48
2023-05-12T07:01:12.893Z,14.95
2023-05-12T07:03:39.981Z,21.77
2023-05-12T07:06:07.241Z,15.63
2023-05-12T07:08:34.383Z,16.88
2023-05-12T07:11:01.940Z,23.27
2023-05-12T07:13:29.173Z,18.17
2023-05-12T07:15:56.224Z,23.73
2023-05-12T07:18:23.313Z,20.65
2023-05-12T07:20:50.503Z,23.77
2023-05-12T07:23:17.500Z,24.90
2023-05-12T07:25:44.735Z,18.52
2023-05-12T07:28:11.910Z,24.52
2023-05-12T07:30:39.394Z,24.88
2023-05-12T07:33:06.729Z,19.95
2023-05-12T07:35:33.968Z,19.92
2023-05-12T07:38:01.601Z,11.63
2023-05-12T07:40:28.640Z,13.73
2023-05-12T07:42:55.846Z,16.15
2023-05-12T07:45:24.825Z,13.63
2023-05-12T07:47:52.193Z,16.55
2023-05-12T07:50:19.525Z,12.98
2023-05-12T07:52:48.192Z,9.95
2023-05-12T07:55:16.091Z,18.23
2023-05-12T07:57:43.365Z,14.43
2023-05-12T08:00:11.778Z,21.05
2023-05-12T08:02:42.567Z,14.60
2023-05-12T08:05:10.834Z,10.98
2023-05-12T08:07:41.118Z,16.33
2023-05-12T08:10:09.511Z,12.20
2023-05-12T08:12:36.616Z,13.50
2023-05-12T08:15:03.980Z,15.88
2023-05-12T08:17:31.061Z,11.65
2023-05-12T08:19:58.243Z,14.90
2023-05-12T08:22:25.507Z,16.92
2023-05-12T08:24:55.407Z,18.98
2023-05-12T08:27:22.577Z,17.10
2023-05-12T08:29:51.575Z,19.42
2023-05-12T08:32:18.806Z,11.57
2023-05-12T08:34:45.987Z,12.88
2023-05-12T08:37:13.753Z,18.40
2023-05-12T08:39:41.075Z,15.80
2023-05-12T08:42:22.626Z,12.48
2023-05-12T08:44:50.190Z,15.48
2023-05-12T08:47:20.138Z,12.73
2023-05-12T08:49:52.755Z,21.13
2023-05-12T08:52:22.362Z,11.98
2023-05-12T08:54:56.057Z,15.35
2023-05-12T08:57:26.413Z,17.42
2023-05-12T08:59:56.141Z,17.50
2023-05-12T09:02:24.725Z,21.58
2023-05-12T09:04:52.692Z,18.13
2023-05-12T09:07:20.100Z,16.75
2023-05-12T09:09:50.972Z,18.85
2023-05-12T09:12:19.793Z,21.65
2023-05-12T09:14:51.289Z,14.60
2023-05-12T09:17:18.848Z,18.10
2023-05-12T09:19:46.028Z,16.77
2023-05-12T09:22:15.043Z,19.65
2023-05-12T09:24:42.273Z,16.80
2023-05-12T09:27:09.456Z,16.52
2023-05-12T09:29:45.165Z,17.52
2023-05-12T09:32:15.160Z,13.23
2023-05-12T09:34:43.752Z,12.68
2023-05-12T09:37:11.536Z,8.38
2023-05-12T09:39:39.934Z,15.00
2023-05-12T09:42:12.586Z,14.07
2023-05-12T09:44:40.953Z,12.35
2023-05-12T09:47:10.258Z,17.88
2023-05-12T09:49:38.487Z,13.00
2023-05-12T09:52:05.839Z,12.73
2023-05-12T09:54:34.560Z,13.23
2023-05-12T09:57:05.276Z,13.40
2023-05-12T09:59:34.774Z,14.75
2023-05-12T10:02:03.188Z,16.45
2023-05-12T10:04:39.614Z,12.18
2023-05-12T10:07:11.651Z,24.45
2023-05-12T10:09:42.512Z,14.60
2023-05-12T10:12:10.289Z,15.10
2023-05-12T10:14:37.971Z,15.60
2023-05-12T10:17:07.256Z,12.55
2023-05-12T10:19:36.117Z,12.98
2023-05-12T10:22:04.230Z,14.32
2023-05-12T10:24:31.310Z,18.15
2023-05-12T10:26:59.799Z,18.52
2023-05-12T10:29:33.098Z,16.30
2023-05-12T10:32:04.248Z,12.25
2023-05-12T10:34:34.914Z,12.88
2023-05-12T10:37:08.517Z,13.20
2023-05-12T10:39:36.031Z,17.52
2023-05-12T10:42:07.208Z,19.15
2023-05-12T10:44:36.554Z,17.45
2023-05-12T10:47:13.911Z,18.98
2023-05-12T10:49:42.037Z,21.88
2023-05-12T10:52:12.253Z,20.60
2023-05-12T10:54:44.905Z,15.50
2023-05-12T10:57:18.704Z,17.95
2023-05-12T10:59:57.009Z,16.30
2023-05-12T11:02:29.549Z,11.55
2023-05-12T11:05:00.144Z,12.30
2023-05-12T11:07:30.654Z,12.73
2023-05-12T11:10:01.480Z,14.43
2023-05-12T11:12:38.354Z,16.55
2023-05-12T11:15:07.127Z,18.95
2023-05-12T11:17:38.127Z,11.70
2023-05-12T11:20:05.950Z,17.58
2023-05-12T11:22:33.470Z,18.75
2023-05-12T11:25:09.912Z,20.25
2023-05-12T11:27:42.471Z,16.33
2023-05-12T11:30:11.408Z,21.88
2023-05-12T11:32:38.591Z,14.15
2023-05-12T11:35:19.802Z,17.10
2023-05-12T11:37:47.240Z,14.00
2023-05-12T11:40:21.990Z,19.20
2023-05-12T11:42:53.043Z,18.95
2023-05-12T11:45:29.709Z,18.55
2023-05-12T11:48:11.736Z,14.52
2023-05-12T11:50:41.261Z,14.60
2023-05-12T11:53:15.921Z,20.02
2023-05-12T11:55:51.302Z,13.38
2023-05-12T11:58:21.949Z,16.80
2023-05-12T12:00:49.252Z,18.25
2023-05-12T12:03:16.862Z,11.98
2023-05-12T12:05:57.671Z,13.30
2023-05-12T12:08:24.705Z,10.15
2023-05-12T12:10:51.859Z,4.20
2023-05-12T12:13:22.994Z,3.13
2023-05-12T12:15:50.989Z,4.22
2023-05-12T12:18:19.211Z,6.03
2023-05-12T12:20:49.508Z,7.55
2023-05-12T12:23:16.523Z,4.63
2023-05-12T12:25:43.837Z,3.80
2023-05-12T12:28:11.257Z,6.20
2023-05-12T12:30:38.328Z,7.40
2023-05-12T12:33:05.530Z,6.68
2023-05-12T12:35:32.589Z,6.28
2023-05-12T12:38:00.618Z,4.85
2023-05-12T12:40:27.766Z,5.13
2023-05-12T12:42:54.861Z,8.70
2023-05-12T12:45:22.184Z,12.73
2023-05-12T12:47:52.672Z,10.32
2023-05-12T12:50:19.790Z,9.93
2023-05-12T12:52:48.229Z,8.05
2023-05-12T12:55:15.421Z,12.43
2023-05-12T12:57:42.500Z,10.23
2023-05-12T13:00:10.123Z,15.40
2023-05-12T13:02:37.331Z,7.78
2023-05-12T13:05:07.304Z,8.82
2023-05-12T13:07:34.711Z,8.38
2023-05-12T13:10:02.239Z,4.22
2023-05-12T13:12:30.693Z,6.07
2023-05-12T13:14:58.018Z,7.43
2023-05-12T13:17:25.164Z,3.92
2023-05-12T13:19:55.141Z,8.90
2023-05-12T13:22:26.776Z,6.88
2023-05-12T13:24:54.153Z,7.28
2023-05-12T13:27:21.423Z,6.90
2023-05-12T13:29:48.661Z,6.50
2023-05-12T13:32:16.575Z,5.10
2023-05-12T13:34:43.923Z,7.35
2023-05-12T13:37:10.983Z,5.43
2023-05-12T13:39:38.202Z,11.70
2023-05-12T13:42:05.992Z,7.45
2023-05-12T13:44:33.730Z,7.60
2023-05-12T13:47:01.935Z,5.97
2023-05-12T13:49:30.464Z,5.70
2023-05-12T13:51:58.731Z,4.07
2023-05-12T13:54:26.399Z,7.07
2023-05-12T13:56:55.000Z,10.35
2023-05-12T13:59:23.440Z,4.00
2023-05-12T14:01:51.468Z,12.18
2023-05-12T14:04:19.375Z,7.70
2023-05-12T14:06:47.445Z,4.20
2023-05-12T14:09:15.755Z,6.68
2023-05-12T14:11:43.055Z,5.95
2023-05-12T14:14:10.129Z,8.23
2023-05-12T14:16:37.833Z,6.90
2023-05-12T14:19:05.432Z,9.15
2023-05-12T14:21:32.696Z,17.48
2023-05-12T14:24:00.366Z,16.55
2023-05-12T14:26:28.543Z,12.82
2023-05-12T14:28:56.287Z,15.05
2023-05-12T14:31:24.094Z,18.63
2023-05-12T14:33:53.207Z,14.45
2023-05-12T14:36:20.956Z,17.55
2023-05-12T14:38:50.256Z,21.23
2023-05-12T14:41:17.609Z,16.77
2023-05-12T14:43:44.804Z,24.48
2023-05-12T14:46:12.301Z,14.70
2023-05-12T14:48:39.771Z,17.52
2023-05-12T14:51:07.198Z,17.88
2023-05-12T14:53:35.581Z,21.52
2023-05-12T14:56:02.895Z,14.88
2023-05-12T14:58:30.220Z,17.27
2023-05-12T15:00:57.288Z,14.77
2023-05-12T15:03:25.140Z,15.68
2023-05-12T15:06:05.631Z,23.55
2023-05-12T15:08:33.852Z,20.45
2023-05-12T15:11:01.519Z,15.80
2023-05-12T15:13:28.826Z,14.00
2023-05-12T15:15:56.732Z,18.63
2023-05-12T15:18:24.432Z,21.88
2023-05-12T15:20:52.331Z,16.40
2023-05-12T15:23:19.613Z,18.00
2023-05-12T15:25:47.680Z,15.35
2023-05-12T15:28:14.958Z,18.42
2023-05-12T15:30:42.906Z,17.90
2023-05-12T15:33:10.727Z,17.42
2023-05-12T15:35:41.049Z,19.55
2023-05-12T15:38:08.588Z,16.77
2023-05-12T15:40:35.696Z,20.75
2023-05-12T15:43:03.210Z,16.13
2023-05-12T15:45:31.566Z,18.17
2023-05-12T15:47:59.235Z,18.50
2023-05-12T15:50:26.478Z,19.98
2023-05-12T15:52:53.533Z,22.15
2023-05-12T15:55:20.953Z,17.67
2023-05-12T15:57:48.387Z,18.83
2023-05-12T16:00:16.179Z,21.20
2023-05-12T16:02:43.844Z,20.65
2023-05-12T16:05:12.212Z,19.25
2023-05-12T16:07:39.286Z,15.88
2023-05-12T16:10:07.001Z,13.20
2023-05-12T16:12:34.011Z,18.08
2023-05-12T16:15:01.563Z,21.00
2023-05-12T16:17:28.732Z,23.35
2023-05-12T16:19:57.122Z,23.80
2023-05-12T16:22:24.233Z,21.30
2023-05-12T16:24:51.386Z,21.08
2023-05-12T16:27:18.602Z,19.67
2023-05-12T16:29:46.098Z,22.05
2023-05-12T16:32:13.177Z,16.17
2023-05-12T16:34:40.488Z,19.70
2023-05-12T16:37:07.706Z,20.42
2023-05-12T16:39:36.058Z,18.77
2023-05-12T16:42:03.416Z,21.08
2023-05-12T16:44:30.657Z,20.25
2023-05-12T16:46:57.668Z,15.90
2023-05-12T16:49:24.905Z,14.23
2023-05-12T16:51:52.040Z,13.80
2023-05-12T16:54:19.255Z,18.42
2023-05-12T16:56:47.446Z,11.93
2023-05-12T16:59:14.950Z,20.52
2023-05-12T17:01:42.177Z,17.85
2023-05-12T17:04:12.086Z,15.77
2023-05-12T17:06:39.137Z,17.67
2023-05-12T17:09:06.258Z,15.73
2023-05-12T17:11:33.268Z,16.65
2023-05-12T17:14:01.069Z,15.35
2023-05-12T17:16:28.930Z,21.90
2023-05-12T17:21:26.854Z,15.30
2023-05-12T17:23:54.440Z,23.30
2023-05-12T17:26:21.556Z,9.38
2023-05-12T17:28:48.716Z,15.88
2023-05-12T17:31:16.001Z,23.02
2023-05-12T17:33:43.162Z,16.55
2023-05-12T17:36:13.144Z,18.50
2023-05-12T17:38:41.584Z,21.38
2023-05-12T17:41:08.907Z,21.70
2023-05-12T17:43:36.314Z,19.00
2023-05-12T17:46:05.056Z,16.63
2023-05-12T17:48:33.504Z,15.00
2023-05-12T17:51:03.396Z,14.07
2023-05-12T17:53:31.408Z,19.48
2023-05-12T17:55:59.385Z,13.55
2023-05-12T17:58:26.619Z,12.27
2023-05-12T18:00:54.050Z,13.25
2023-05-12T18:03:24.171Z,12.60
2023-05-12T18:05:53.064Z,11.50
2023-05-12T18:08:20.944Z,16.70
2023-05-12T18:10:48.186Z,15.60
2023-05-12T18:13:15.667Z,14.15
2023-05-12T18:15:42.904Z,19.42
2023-05-12T18:18:10.944Z,18.33
2023-05-12T18:20:38.468Z,14.45
2023-05-12T18:23:05.631Z,19.35
2023-05-12T18:25:32.976Z,17.10
2023-05-12T18:28:00.087Z,15.30
2023-05-12T18:30:27.324Z,16.77
2023-05-12T18:32:54.454Z,20.52
2023-05-12T18:35:22.071Z,17.60
2023-05-12T18:37:49.661Z,14.30
2023-05-12T18:40:17.073Z,16.55
2023-05-12T18:42:44.162Z,19.58
2023-05-12T18:45:12.212Z,17.08
2023-05-12T18:47:39.648Z,14.68
2023-05-12T18:50:07.644Z,17.85
2023-05-12T18:52:35.050Z,13.80
2023-05-12T18:55:03.062Z,18.63
2023-05-12T18:57:31.110Z,17.42
2023-05-12T18:59:58.822Z,19.13
2023-05-12T19:02:25.975Z,18.70
2023-05-12T19:04:53.565Z,19.70
2023-05-12T19:07:20.767Z,15.63
2023-05-12T19:09:47.880Z,14.73
2023-05-12T19:12:15.016Z,12.48
2023-05-12T19:14:43.307Z,12.55
2023-05-12T19:17:11.026Z,20.45
2023-05-12T19:19:38.475Z,16.48
2023-05-12T19:22:05.576Z,14.98
2023-05-12T19:24:33.174Z,12.95
2023-05-12T19:27:00.206Z,15.52
2023-05-12T19:29:27.488Z,12.13
2023-05-12T19:31:54.766Z,8.98
2023-05-12T19:34:22.164Z,15.70
2023-05-12T19:36:49.243Z,11.70
2023-05-12T19:39:16.560Z,9.25
2023-05-12T19:41:43.690Z,11.43
2023-05-12T19:44:10.796Z,10.50
2023-05-12T19:46:38.023Z,15.07
2023-05-12T19:49:06.072Z,14.05
2023-05-12T19:51:33.533Z,18.67
2023-05-12T19:54:02.081Z,10.90
2023-05-12T19:56:29.904Z,11.65
2023-05-12T19:58:56.952Z,10.82
2023-05-12T20:01:24.278Z,16.10
2023-05-12T20:03:52.730Z,11.75
2023-05-12T20:06:20.636Z,12.55
2023-05-12T20:08:47.750Z,11.55
2023-05-12T20:11:15.141Z,16.88
2023-05-12T20:13:42.243Z,18.92
2023-05-12T20:16:09.517Z,11.55
2023-05-12T20:18:36.543Z,14.70
2023-05-12T20:21:03.771Z,17.45
2023-05-12T20:23:30.781Z,15.05
2023-05-12T20:25:57.955Z,14.50
2023-05-12T20:28:25.424Z,17.52
2023-05-12T20:30:52.801Z,14.23
2023-05-12T20:33:20.102Z,16.33
2023-05-12T20:35:47.251Z,16.10
2023-05-12T20:38:14.409Z,16.85
2023-05-12T20:40:41.446Z,17.17
2023-05-12T20:43:08.593Z,22.17
2023-05-12T20:45:37.323Z,19.98
2023-05-12T20:48:04.841Z,19.30
2023-05-12T20:50:32.019Z,20.88
2023-05-12T20:52:59.291Z,21.38
2023-05-12T20:55:26.660Z,22.30
2023-05-12T20:57:54.291Z,26.80
2023-05-12T21:00:21.786Z,21.92
2023-05-12T21:02:52.329Z,27.58
2023-05-12T21:05:20.851Z,19.05
2023-05-12T21:07:48.415Z,23.60
2023-05-12T21:10:15.678Z,25.92
2023-05-12T21:12:42.935Z,20.08
2023-05-12T21:15:11.524Z,25.83
2023-05-12T21:17:41.570Z,26.05
2023-05-12T21:20:11.147Z,22.50
2023-05-12T21:22:40.691Z,24.85
2023-05-12T21:25:08.110Z,20.90
2023-05-12T21:27:40.734Z,25.50
2023-05-12T21:30:09.402Z,27.17
2023-05-12T21:32:36.806Z,23.52
2023-05-12T21:35:04.196Z,27.85
2023-05-12T21:37:31.282Z,28.80
2023-05-12T21:39:58.463Z,22.25
2023-05-12T21:42:25.529Z,17.25
2023-05-12T21:44:53.006Z,20.65
2023-05-12T21:47:20.154Z,20.88
2023-05-12T21:49:47.175Z,17.02
2023-05-12T21:52:16.082Z,20.58
2023-05-12T21:54:43.026Z,24.45
2023-05-12T21:57:10.302Z,18.08
2023-05-12T21:59:37.390Z,25.05
2023-05-12T22:02:04.840Z,19.50
2023-05-12T22:04:31.915Z,26.48
2023-05-12T22:06:58.959Z,27.60
2023-05-12T22:09:26.241Z,27.05
2023-05-12T22:11:53.291Z,21.33
2023-05-12T22:14:21.027Z,20.10
2023-05-12T22:16:48.080Z,21.27
2023-05-12T22:19:16.649Z,21.88
2023-05-12T22:21:43.713Z,24.52
2023-05-12T22:24:11.312Z,16.77
2023-05-12T22:26:38.629Z,18.05
2023-05-12T22:29:05.746Z,22.35
2023-05-12T22:31:32.880Z,27.85
2023-05-12T22:33:59.942Z,15.93
2023-05-12T22:36:27.085Z,17.40
2023-05-12T22:38:54.262Z,20.23
2023-05-12T22:41:21.278Z,21.42
2023-05-12T22:43:48.397Z,18.55
2023-05-12T22:46:15.407Z,19.38
2023-05-12T22:48:43.581Z,18.02
2023-05-12T22:51:10.602Z,21.08
2023-05-12T22:53:41.375Z,17.58
2023-05-12T22:56:08.662Z,21.42
2023-05-12T22:58:35.900Z,19.55
2023-05-12T23:01:03.100Z,18.67
2023-05-12T23:03:30.172Z,20.85
2023-05-12T23:05:57.578Z,22.38
2023-05-12T23:08:24.606Z,20.48
2023-05-12T23:10:51.749Z,12.95
2023-05-12T23:13:18.744Z,15.13
2023-05-12T23:15:45.870Z,16.15
2023-05-12T23:18:12.810Z,15.93
2023-05-12T23:20:40.048Z,13.82
2023-05-12T23:23:07.251Z,12.18
2023-05-12T23:25:35.319Z,18.00
2023-05-12T23:28:02.291Z,18.17
2023-05-12T23:30:32.243Z,10.88
2023-05-12T23:33:00.865Z,16.63
2023-05-12T23:35:28.115Z,13.88
2023-05-12T23:37:55.136Z,13.75
2023-05-12T23:40:22.545Z,17.50
2023-05-12T23:42:49.802Z,16.23
2023-05-12T23:45:16.890Z,19.83
2023-05-12T23:47:44.087Z,14.02
2023-05-12T23:50:11.601Z,15.80
2023-05-12T23:52:38.946Z,17.77
2023-05-12T23:55:06.463Z,13.35
2023-05-12T23:57:33.523Z,15.35
